sensor_id;sensor_type;location;lat;lon;timestamp;pressure;altitude;pressure_sealevel;temperature;humidity
3832;BME280;12460;42.662;23.288;2023-02-18T00:03:09;95260.53;;;6.59;44.72
3832;BME280;12460;42.662;23.288;2023-02-18T00:18:13;95251.16;;;6.56;44.90
3832;BME280;12460;42.662;23.288;2023-02-18T00:33:18;95230.22;;;6.25;47.04
3832;BME280;12460;42.662;23.288;2023-02-18T00:48:22;95222.19;;;6.16;46.92
3832;BME280;12460;42.662;23.288;2023-02-18T01:03:26;95209.81;;;5.88;47.02
3832;BME280;12460;42.662;23.288;2023-02-18T01:18:31;95193.94;;;5.77;47.53
3832;BME280;12460;42.662;23.288;2023-02-18T01:33:36;95201.78;;;5.54;48.23
3832;BME280;12460;42.662;23.288;2023-02-18T01:48:55;95208.78;;;5.37;48.55
3832;BME280;12460;42.662;23.288;2023-02-18T02:04:01;95218.88;;;5.16;49.15
3832;BME280;12460;42.662;23.288;2023-02-18T03:21:05;95201.63;;;5.17;49.59
3832;BME280;12460;42.662;23.288;2023-02-18T03:36:12;95229.69;;;5.25;48.43
3832;BME280;12460;42.662;23.288;2023-02-18T03:51:20;95254.47;;;4.99;50.26
3832;BME280;12460;42.662;23.288;2023-02-18T04:06:25;95241.00;;;5.03;49.77
3832;BME280;12460;42.662;23.288;2023-02-18T04:21:30;95228.09;;;5.00;50.74
3832;BME280;12460;42.662;23.288;2023-02-18T04:36:34;95208.69;;;4.88;50.33
3832;BME280;12460;42.662;23.288;2023-02-18T04:51:39;95220.16;;;4.79;50.78
3832;BME280;12460;42.662;23.288;2023-02-18T05:06:44;95244.66;;;4.86;50.49
3832;BME280;12460;42.662;23.288;2023-02-18T05:21:48;95246.31;;;4.65;51.93
3832;BME280;12460;42.662;23.288;2023-02-18T05:36:53;95217.28;;;4.90;50.64
3832;BME280;12460;42.662;23.288;2023-02-18T05:51:58;95224.38;;;5.21;50.80
3832;BME280;12460;42.662;23.288;2023-02-18T06:07:03;95248.88;;;5.63;49.63
3832;BME280;12460;42.662;23.288;2023-02-18T06:22:07;95235.75;;;6.07;48.98
3832;BME280;12460;42.662;23.288;2023-02-18T06:37:12;95224.66;;;6.81;46.72
3832;BME280;12460;42.662;23.288;2023-02-18T06:52:17;95223.47;;;7.09;46.13
3832;BME280;12460;42.662;23.288;2023-02-18T07:07:21;95232.41;;;7.84;44.57
3832;BME280;12460;42.662;23.288;2023-02-18T07:22:25;95215.38;;;8.08;44.07
3832;BME280;12460;42.662;23.288;2023-02-18T07:37:31;95229.06;;;8.11;43.87
3832;BME280;12460;42.662;23.288;2023-02-18T07:52:34;95255.63;;;8.96;41.97
3832;BME280;12460;42.662;23.288;2023-02-18T08:07:39;95230.81;;;9.21;40.98
3832;BME280;12460;42.662;23.288;2023-02-18T08:22:42;95237.25;;;10.40;39.39
3832;BME280;12460;42.662;23.288;2023-02-18T08:37:46;95200.53;;;10.38;38.42
3832;BME280;12460;42.662;23.288;2023-02-18T08:52:55;95209.84;;;10.69;37.54
3832;BME280;12460;42.662;23.288;2023-02-18T09:07:59;95216.97;;;11.20;37.57
3832;BME280;12460;42.662;23.288;2023-02-18T09:23:04;95225.16;;;11.77;36.42
3832;BME280;12460;42.662;23.288;2023-02-18T09:38:10;95181.81;;;14.11;33.33
3832;BME280;12460;42.662;23.288;2023-02-18T09:53:15;95189.19;;;16.06;30.30
3832;BME280;12460;42.662;23.288;2023-02-18T10:08:22;95157.31;;;17.11;28.59
3832;BME280;12460;42.662;23.288;2023-02-18T10:23:28;95150.91;;;17.70;27.78
3832;BME280;12460;42.662;23.288;2023-02-18T10:53:57;95097.56;;;19.19;25.87
3832;BME280;12460;42.662;23.288;2023-02-18T11:09:02;95075.41;;;18.00;26.88
3832;BME280;12460;42.662;23.288;2023-02-18T11:24:11;95059.28;;;17.93;27.06
3832;BME280;12460;42.662;23.288;2023-02-18T11:39:26;95021.59;;;18.46;26.49
3832;BME280;12460;42.662;23.288;2023-02-18T11:54:31;94997.47;;;18.92;25.41
3832;BME280;12460;42.662;23.288;2023-02-18T12:09:44;94969.66;;;20.70;23.14
3832;BME280;12460;42.662;23.288;2023-02-18T12:55:43;94919.06;;;20.22;23.47
3832;BME280;12460;42.662;23.288;2023-02-18T13:11:00;94924.53;;;20.18;23.50
3832;BME280;12460;42.662;23.288;2023-02-18T13:26:10;94926.47;;;20.02;23.95
3832;BME280;12460;42.662;23.288;2023-02-18T13:41:18;94920.88;;;19.09;25.00
3832;BME280;12460;42.662;23.288;2023-02-18T13:56:29;94913.56;;;18.39;25.69
3832;BME280;12460;42.662;23.288;2023-02-18T14:11:55;94909.97;;;17.73;27.83
3832;BME280;12460;42.662;23.288;2023-02-18T14:27:11;94920.56;;;16.99;29.70
3832;BME280;12460;42.662;23.288;2023-02-18T14:57:47;94911.69;;;16.05;31.14
3832;BME280;12460;42.662;23.288;2023-02-18T15:12:53;94913.97;;;15.59;32.42
3832;BME280;12460;42.662;23.288;2023-02-18T15:27:58;94902.09;;;15.05;34.00
3832;BME280;12460;42.662;23.288;2023-02-18T15:43:03;94879.97;;;14.48;34.54
3832;BME280;12460;42.662;23.288;2023-02-18T15:58:18;94865.16;;;14.04;35.53
3832;BME280;12460;42.662;23.288;2023-02-18T16:13:25;94860.09;;;13.75;35.69
3832;BME280;12460;42.662;23.288;2023-02-18T16:28:32;94881.28;;;13.67;35.12
3832;BME280;12460;42.662;23.288;2023-02-18T16:43:37;94873.91;;;13.54;35.82
3832;BME280;12460;42.662;23.288;2023-02-18T16:58:41;94867.84;;;13.41;35.45
3832;BME280;12460;42.662;23.288;2023-02-18T17:13:47;94879.75;;;13.22;37.14
3832;BME280;12460;42.662;23.288;2023-02-18T17:28:54;94878.88;;;13.12;37.25
3832;BME280;12460;42.662;23.288;2023-02-18T17:43:59;94877.97;;;12.68;38.35
3832;BME280;12460;42.662;23.288;2023-02-18T17:59:04;94857.09;;;12.46;38.42
3832;BME280;12460;42.662;23.288;2023-02-18T18:14:11;94866.28;;;12.22;39.46
3832;BME280;12460;42.662;23.288;2023-02-18T18:29:16;94876.75;;;11.72;40.62
3832;BME280;12460;42.662;23.288;2023-02-18T18:44:21;94871.75;;;11.48;41.35
3832;BME280;12460;42.662;23.288;2023-02-18T18:59:26;94870.88;;;11.38;41.44
3832;BME280;12460;42.662;23.288;2023-02-18T19:14:29;94855.19;;;11.12;42.26
3832;BME280;12460;42.662;23.288;2023-02-18T19:29:33;94874.78;;;10.80;42.92
3832;BME280;12460;42.662;23.288;2023-02-18T19:44:37;94877.78;;;10.74;42.87
3832;BME280;12460;42.662;23.288;2023-02-18T19:59:42;94891.84;;;10.51;43.29
3832;BME280;12460;42.662;23.288;2023-02-18T20:14:49;94888.09;;;10.41;43.43
3832;BME280;12460;42.662;23.288;2023-02-18T20:29:53;94874.25;;;10.28;43.96
3832;BME280;12460;42.662;23.288;2023-02-18T20:44:58;94869.31;;;10.06;44.97
3832;BME280;12460;42.662;23.288;2023-02-18T21:00:02;94881.81;;;9.90;44.72
3832;BME280;12460;42.662;23.288;2023-02-18T21:15:07;94872.44;;;9.72;45.77
3832;BME280;12460;42.662;23.288;2023-02-18T21:30:12;94852.41;;;9.76;45.38
3832;BME280;12460;42.662;23.288;2023-02-18T21:45:16;94849.41;;;9.66;45.42
3832;BME280;12460;42.662;23.288;2023-02-18T22:00:20;94836.88;;;9.75;44.79
3832;BME280;12460;42.662;23.288;2023-02-18T22:15:26;94826.56;;;9.70;45.47
3832;BME280;12460;42.662;23.288;2023-02-18T22:30:30;94824.84;;;9.52;45.65
3832;BME280;12460;42.662;23.288;2023-02-18T22:45:35;94832.06;;;9.32;46.68
3832;BME280;12460;42.662;23.288;2023-02-18T23:00:40;94821.09;;;8.98;46.78
3832;BME280;12460;42.662;23.288;2023-02-18T23:15:55;94822.28;;;9.10;46.87
3832;BME280;12460;42.662;23.288;2023-02-18T23:31:00;94824.09;;;9.00;47.09
3832;BME280;12460;42.662;23.288;2023-02-18T23:46:05;94813.06;;;8.95;46.82
